Latest Weather Observations for Davis (Whoop Whoop)*

IDT60801

Issued at 8:35 pm EDT Wednesday 22 October 2014 (issued every 30 minutes, with the page automatically refreshed every 10 minutes)

About weather observations | Map of weather stations | Latest weather observations for ANT | Other Formats
Station Details ID: 300055 Name: DAVIS (WHOOP WHOOP) Lat: -68.48 Lon: 78.82 Height: 545.0 m
Data from the previous 72 hours. | See also: Recent months for locations in Antarctica
Date/Time
EDT
Temp
°C
App
Temp
°C
Dew
Point
Rel
Hum
%
Delta-T
°C
Wind Press
QNH
hPa
Press
MSL
hPa
Rain
since 9 am
mm
Dir
 
Spd
km/h
Gust
km/h
Spd
kts
Gust
kts
22/08:30pm -13.1 -16.7 -20.6 53 - NNW 0 0 0 0 978.2 - -
22/08:00pm -12.4 -16.0 -20.4 51 - N 0 0 0 0 978.0 - -
22/07:30pm -13.4 -17.0 -20.5 55 - CALM 0 0 0 0 977.7 - -
22/07:00pm -13.6 -17.2 -20.5 56 - CALM 0 52 0 28 977.6 - -
22/06:30pm -13.9 -20.0 -21.4 53 - NE 13 28 7 15 977.6 - -
22/06:00pm -14.3 -21.2 -22.0 52 - NE 17 37 9 20 977.5 - -
22/05:30pm -14.4 -20.6 -23.7 45 - NE 13 43 7 23 977.5 - -
22/05:00pm -14.8 -20.2 -22.2 53 - ENE 9 39 5 21 977.4 - -
22/04:30pm -14.8 -21.0 -23.8 46 - ENE 13 35 7 19 977.2 - -
22/04:00pm -15.4 -22.7 -23.2 51 - ENE 19 35 10 19 976.9 - -
22/03:30pm -15.7 -22.6 -23.3 52 - ENE 17 35 9 19 977.0 - -
22/03:00pm -16.0 -21.8 -24.4 48 - ENE 11 35 6 19 976.9 - -
22/02:30pm -16.9 -25.2 -24.8 50 - ENE 24 39 13 21 976.9 - -
22/02:00pm -17.4 -24.4 -25.7 48 - ENE 17 44 9 24 976.9 - -
22/01:30pm -17.4 -24.9 -25.7 48 - ENE 20 39 11 21 976.7 - -
22/01:00pm -18.2 -26.1 -26.0 50 - E 22 39 12 21 976.6 - -
22/12:30pm -18.8 -26.4 -26.6 50 - E 20 41 11 22 976.2 - -
22/12:00pm -19.3 -28.0 -26.8 51 - E 26 39 14 21 976.5 - -
22/11:30am -20.1 -30.0 -27.0 54 - E 32 46 17 25 976.2 - -
22/11:00am -20.3 -30.4 -27.4 53 - E 33 46 18 25 976.2 - -
22/10:30am -19.8 -29.3 -27.3 51 - E 30 39 16 21 976.2 - -
22/10:00am -19.7 -29.6 -27.6 49 - E 32 44 17 24 976.5 - -
22/09:30am -19.8 -29.8 -26.9 53 - E 33 44 18 24 976.2 - -
22/09:00am -19.4 -29.8 -26.9 51 - E 35 44 19 24 975.9 - -
22/08:32am -19.3 -29.7 -26.8 51 - E 35 54 19 29 975.8 - -
22/08:30am -19.3 -29.7 -26.6 52 - E 35 52 19 28 976.0 - -
22/08:00am -19.3 -29.4 -27.3 49 - E 33 44 18 24 975.8 - -
22/07:52am -19.4 -28.5 -27.1 50 - E 28 43 15 23 975.8 - -
22/07:30am -19.0 -23.2 -26.8 50 - E 2 24 1 13 975.8 - -
22/07:00am -19.0 -27.3 -27.0 49 - E 24 33 13 18 975.6 - -
22/06:30am -19.1 -28.6 -27.1 49 - E 30 39 16 21 975.3 - -
22/06:00am -19.0 -28.5 -27.0 49 - E 30 39 16 21 975.2 - -
22/05:30am -19.2 -28.3 -26.7 51 - E 28 39 15 21 975.0 - -
22/05:00am -19.4 -29.3 -27.4 49 - E 32 41 17 22 974.9 - -
22/04:30am -18.9 -27.6 -26.5 51 - ENE 26 35 14 19 975.0 - -
22/04:00am -19.0 -29.0 -26.6 51 - E 33 44 18 24 974.7 - -
22/03:30am -18.4 -28.4 -25.6 53 - E 33 41 18 22 974.5 - -
22/03:00am -18.5 -27.9 -25.7 53 - E 30 43 16 23 974.3 - -
22/02:30am -18.4 -27.8 -25.6 53 - E 30 44 16 24 974.5 - -
22/02:00am -18.1 -25.6 -25.1 54 - E 20 35 11 19 974.7 - -
22/01:30am -17.3 -21.4 -24.6 53 - ENE 2 28 1 15 974.5 - -
22/01:00am -15.6 -19.3 -25.0 44 - CALM 0 0 0 0 975.0 - -
22/12:30am -14.5 -18.2 -23.3 47 - CALM 0 0 0 0 974.9 - -
22/12:00am -13.4 -17.1 -22.8 45 - CALM 0 0 0 0 974.7 - -
 
Date/Time
EDT
Temp
°C
App
Temp
°C
Dew
Point
Rel
Hum
%
Delta-T
°C
Wind Press
QNH
hPa
Press
MSL
hPa
Rain
since 9 am
mm
Dir
 
Spd
km/h
Gust
km/h
Spd
kts
Gust
kts
21/11:30pm -11.6 -15.2 -21.1 45 - CALM 0 0 0 0 974.7 - -
21/11:00pm -11.4 -15.0 -20.4 47 - CALM 0 0 0 0 974.6 - -
21/10:30pm -11.4 -14.9 -18.6 55 - CALM 0 0 0 0 974.5 - -
21/10:00pm -11.2 -14.7 -17.8 58 - CALM 0 0 0 0 974.2 - -
21/09:30pm -8.7 -12.3 -20.7 37 - CALM 0 0 0 0 974.2 - -
21/09:00pm -8.9 -12.5 -21.2 36 - CALM 0 0 0 0 974.2 - -
21/08:30pm -5.9 -9.5 -19.5 33 - CALM 0 0 0 0 974.2 - -
21/08:00pm -6.3 -9.8 -18.9 36 - CALM 0 0 0 0 974.2 - -
21/07:30pm -6.2 -9.7 -18.8 36 - CALM 0 0 0 0 974.3 - -
21/07:00pm -9.8 -13.3 -18.0 51 - CALM 0 0 0 0 974.2 - -
21/06:30pm -10.1 -13.6 -18.7 49 - CALM 0 0 0 0 974.1 - -
21/06:00pm -11.3 -14.9 -19.9 49 - CALM 0 0 0 0 973.9 - -
21/05:30pm -11.5 -15.2 -22.4 40 - CALM 0 0 0 0 973.8 - -
21/05:00pm -11.8 -15.4 -21.3 45 - CALM 0 0 0 0 973.6 - -
21/04:30pm -12.3 -17.7 -23.6 38 - NE 9 35 5 19 973.7 - -
21/04:00pm -13.3 -17.7 -21.9 48 - E 4 32 2 17 973.5 - -
21/03:00pm -14.2 -23.2 -22.5 49 - ENE 28 41 15 22 973.3 - -
21/02:30pm -14.2 -23.2 -22.8 48 - E 28 39 15 21 973.2 - -
21/02:00pm -14.7 -24.7 -23.2 48 - ENE 33 46 18 25 973.3 - -
21/01:30pm -14.8 -24.2 -25.1 41 - ENE 30 50 16 27 972.9 - -
21/01:00pm -15.7 -25.7 -24.2 48 - E 33 44 18 24 972.9 - -
21/12:30pm -16.0 -26.7 -23.8 51 - ENE 37 56 20 30 973.2 - -
21/12:00pm -16.2 -26.6 -24.9 47 - E 35 50 19 27 973.1 - -
21/11:30am -16.4 -28.3 -25.0 47 - E 43 52 23 28 972.9 - -
21/11:00am -16.8 -27.2 -25.6 46 - E 35 46 19 25 972.9 - -
21/10:30am -17.1 -27.5 -25.2 49 - E 35 46 19 25 973.1 - -
21/10:00am -17.1 -26.6 -25.9 46 - E 30 39 16 21 973.3 - -
21/09:30am -17.3 -27.3 -25.9 47 - E 33 43 18 23 973.1 - -
21/09:00am -17.5 -26.9 -25.4 50 - E 30 43 16 23 973.1 - -
21/08:00am -17.5 -26.9 -25.4 50 - E 30 39 16 21 973.1 - -
21/07:30am -17.7 -26.0 -25.1 52 - E 24 35 13 19 973.1 - -
21/07:00am -17.0 -25.7 -25.6 47 - E 26 33 14 18 973.2 - -
21/06:30am -16.5 -24.8 -25.6 45 - ENE 24 33 13 18 973.5 - -
21/06:00am -16.8 -25.1 -25.2 48 - E 24 35 13 19 973.3 - -
21/05:30am -16.9 -23.9 -24.8 50 - ENE 17 32 9 17 973.5 - -
21/05:00am -16.4 -24.7 -24.8 48 - ENE 24 35 13 19 973.2 - -
21/04:30am -16.4 -21.3 -24.4 50 - ENE 6 33 3 18 973.5 - -
21/03:30am -15.9 -20.4 -23.9 50 - ENE 4 28 2 15 973.5 - -
21/03:00am -15.9 -19.6 -23.0 54 - CALM 0 17 0 9 973.4 - -
21/02:30am -15.3 -19.0 -22.5 54 - CALM 0 17 0 9 973.4 - -
21/01:30am -15.1 -18.7 -21.9 56 - CALM 0 6 0 3 973.6 - -
21/01:00am -14.9 -18.5 -21.5 57 - CALM 0 2 0 1 973.6 - -
21/12:30am -14.7 -18.3 -20.9 59 - CALM 0 2 0 1 973.7 - -
21/12:00am -14.2 -17.8 -20.2 60 - CALM 0 0 0 0 973.6 - -
 
Date/Time
EDT
Temp
°C
App
Temp
°C
Dew
Point
Rel
Hum
%
Delta-T
°C
Wind Press
QNH
hPa
Press
MSL
hPa
Rain
since 9 am
mm
Dir
 
Spd
km/h
Gust
km/h
Spd
kts
Gust
kts
20/11:30pm -13.9 -17.9 -19.6 62 - ENE 2 180 1 97 973.7 - -
20/11:00pm -13.1 -16.6 -18.8 62 - CALM 0 0 0 0 973.8 - -
20/10:30pm -12.4 -15.9 -18.1 62 - CALM 0 0 0 0 973.8 - -
20/10:00pm -11.9 -15.4 -17.9 61 - CALM 0 0 0 0 973.9 - -
20/09:30pm -11.8 -15.3 -18.2 59 - CALM 0 0 0 0 974.0 - -
20/09:00pm -12.0 -15.5 -18.0 61 - CALM 0 0 0 0 974.3 - -
20/08:30pm -11.4 -14.9 -18.2 57 - CALM 0 0 0 0 974.3 - -
20/08:00pm -10.7 -14.2 -18.8 51 - CALM 0 0 0 0 974.5 - -
20/07:30pm -11.3 -14.9 -19.2 52 - CALM 0 0 0 0 974.6 - -
20/07:00pm -11.5 -16.4 -20.0 49 - NE 7 33 4 18 974.7 - -
20/06:30pm -11.7 -16.0 -19.5 52 - ENE 4 37 2 20 974.9 - -
20/06:00pm -11.9 -16.8 -19.9 51 - NE 7 35 4 19 974.9 - -
20/05:30pm -12.0 -19.2 -20.5 49 - ENE 19 44 10 24 974.9 - -
20/05:00pm -12.2 -19.1 -21.4 46 - ENE 17 39 9 21 974.8 - -
20/04:30pm -12.6 -20.8 -21.1 49 - ENE 24 43 13 23 974.8 - -
20/04:00pm -12.9 -21.9 -22.3 45 - ENE 28 48 15 26 975.2 - -
20/03:30pm -13.2 -22.2 -22.1 47 - ENE 28 54 15 29 975.1 - -
20/03:03pm -13.5 -25.0 -24.7 38 - ENE 41 61 22 33 974.9 - -
20/03:00pm -13.5 -17.2 -23.1 44 - CALM 0 56 0 30 975.1 - -
20/02:39pm -14.0 -23.7 -22.6 48 - ENE 32 56 17 30 974.6 - -
20/02:30pm -13.8 -20.0 -23.6 43 - ENE 13 61 7 33 975.1 - -
20/02:01pm -14.4 -24.4 -23.4 46 - ENE 33 52 18 28 974.9 - -
20/02:00pm -14.3 -24.7 -24.1 43 - ENE 35 52 19 28 974.9 - -
20/01:32pm -14.8 -24.6 -24.8 42 - E 32 50 17 27 974.9 - -
20/01:30pm -14.7 -25.5 -24.7 42 - E 37 52 20 28 975.0 - -
20/01:00pm -15.8 -26.2 -24.7 46 - E 35 59 19 32 974.8 - -
20/12:30pm -15.5 -27.0 -24.9 44 - ENE 41 67 22 36 974.8 - -
20/12:15pm -16.0 -27.2 -25.9 42 - E 39 59 21 32 974.3 - -
20/12:00pm -16.2 -27.4 -26.1 42 - E 39 54 21 29 974.9 - -
20/11:50am -16.3 -26.7 -26.7 40 - E 35 54 19 29 974.9 - -
20/11:30am -16.5 -28.1 -26.6 41 - ENE 41 54 22 29 975.0 - -
20/11:00am -16.9 -28.8 -26.2 44 - E 43 54 23 29 975.2 - -
20/10:30am -17.3 -27.7 -25.2 50 - E 35 46 19 25 975.4 - -
20/10:00am -17.1 -27.5 -26.7 43 - ENE 35 44 19 24 975.4 - -
20/09:30am -17.3 -27.3 -26.1 46 - E 33 46 18 25 975.5 - -
20/09:00am -17.3 -28.1 -25.4 49 - ENE 37 46 20 25 975.5 - -
20/08:30am -16.9 -27.7 -25.7 46 - ENE 37 50 20 27 975.6 - -
20/08:00am -16.8 -27.6 -25.2 48 - ENE 37 - 20 - - - -

Other Formats:

Comma delimited format used in spreadsheet applications
http://www.bom.gov.au/fwo/IDT60803/IDT60803.89570.axf

JavaScript Object Notation format (JSON) in row-major order
http://www.bom.gov.au/fwo/IDT60803/IDT60803.89570.json